Time;durP1;ratioP1;P1;durP2;ratioP2;P2;SDS_P1;SDS_P2;PMS_P1;PMS_P2;Temp;Humidity;BMP_temperature;BMP_pressure;BME280_temperature;BME280_humidity;BME280_pressure;Samples;Min_cycle;Max_cycle;Signal;HPM_P1;HPM_P2
2022/12/30 00:00:12;;;;;;;65.55;44.42;;;;;;;6.49;55.51;102023.09;5049006;28;20874;-77
2022/12/30 00:02:37;;;;;;;62.30;37.97;;;;;;;6.49;55.27;102029.19;5048570;28;20380;-77
2022/12/30 00:05:03;;;;;;;56.63;36.60;;;;;;;6.49;55.47;102031.84;5048882;28;20373;-77
2022/12/30 00:07:29;;;;;;;51.95;32.95;;;;;;;6.44;55.35;102033.97;5048886;28;20718;-77
2022/12/30 00:09:54;;;;;;;45.25;28.85;;;;;;;6.43;55.85;102034.94;5050132;28;20385;-77
2022/12/30 00:34:21;;;;;;;48.67;30.43;;;;;;;6.04;57.45;102057.84;5049613;28;20407;-77
2022/12/30 00:36:49;;;;;;;40.77;24.97;;;;;;;6.01;57.03;102060.69;5049953;28;20438;-76
2022/12/30 00:39:15;;;;;;;38.35;24.55;;;;;;;5.86;56.97;102061.75;5049917;28;20380;-77
2022/12/30 00:44:25;;;;;;;33.10;23.27;;;;;;;5.93;56.77;102058.56;5047860;28;20435;-77
2022/12/30 00:46:51;;;;;;;36.55;21.60;;;;;;;5.75;56.86;102058.06;5049781;28;20476;-76
2022/12/30 00:57:28;;;;;;;33.30;19.60;;;;;;;6.17;55.94;102062.25;5048709;28;20379;-77
2022/12/30 00:59:54;;;;;;;37.88;22.00;;;;;;;6.22;55.77;102060.16;5050104;28;20380;-76
2022/12/30 01:02:20;;;;;;;33.17;21.63;;;;;;;6.25;55.67;102055.50;5049826;28;20377;-77
2022/12/30 01:04:46;;;;;;;38.90;23.77;;;;;;;6.29;55.41;102048.25;5049440;28;20791;-77
2022/12/30 01:07:11;;;;;;;37.58;22.92;;;;;;;6.28;55.72;102043.91;5049757;28;20407;-76
2022/12/30 01:09:37;;;;;;;40.27;24.67;;;;;;;6.27;55.66;102050.16;5049952;28;20442;-76
2022/12/30 01:12:09;;;;;;;37.87;24.03;;;;;;;6.30;55.47;102052.53;5050418;28;20713;-75
2022/12/30 01:14:42;;;;;;;36.10;21.67;;;;;;;6.19;55.35;102060.38;5052581;28;20896;-77
2022/12/30 01:17:10;;;;;;;39.72;25.08;;;;;;;6.23;55.77;102060.06;5050876;28;20377;-76
2022/12/30 01:19:36;;;;;;;83.25;45.72;;;;;;;6.30;55.53;102052.53;5050124;28;20372;-76
2022/12/30 01:22:02;;;;;;;51.10;30.42;;;;;;;6.41;55.35;102046.50;5048737;28;20887;-76
2022/12/30 01:24:28;;;;;;;40.00;26.10;;;;;;;6.40;55.40;102052.75;5050080;28;20444;-76
2022/12/30 01:26:54;;;;;;;52.35;32.83;;;;;;;6.31;55.34;102054.25;5049677;28;20844;-76
2022/12/30 01:29:27;;;;;;;53.13;35.15;;;;;;;6.06;55.70;102045.44;5049361;28;20384;-76
2022/12/30 01:31:57;;;;;;;47.85;29.98;;;;;;;5.84;56.67;102048.69;5051652;28;20456;-76
2022/12/30 01:34:23;;;;;;;46.63;30.65;;;;;;;5.75;57.15;102041.44;5050825;28;20446;-76
2022/12/30 01:36:50;;;;;;;42.63;26.48;;;;;;;5.72;56.77;102052.16;5049509;28;20855;-76
2022/12/30 01:39:15;;;;;;;38.65;24.83;;;;;;;5.65;57.20;102041.19;5049708;28;20381;-76
2022/12/30 01:41:41;;;;;;;41.78;26.00;;;;;;;5.67;57.11;102041.09;5049660;28;20391;-77
2022/12/30 01:44:58;;;;;;;40.55;26.50;;;;;;;5.68;57.18;102027.00;5049403;28;20825;-77
2022/12/30 01:47:41;;;;;;;39.45;24.60;;;;;;;5.70;57.14;102027.75;5037582;28;20376;-77
2022/12/30 01:50:15;;;;;;;40.40;25.58;;;;;;;5.78;56.47;102028.06;5049475;28;20514;-77
2022/12/30 01:52:50;;;;;;;37.55;24.20;;;;;;;5.82;56.30;102026.91;5049077;28;21128;-77
2022/12/30 01:55:21;;;;;;;36.97;22.95;;;;;;;5.64;56.73;102022.94;5049348;28;20404;-77
2022/12/30 01:57:50;;;;;;;33.85;22.42;;;;;;;5.59;57.24;102020.59;5048500;28;20877;-77
2022/12/30 02:00:16;;;;;;;33.65;20.92;;;;;;;5.73;56.54;102015.22;5049302;28;20408;-77
2022/12/30 02:02:42;;;;;;;31.90;20.00;;;;;;;5.81;56.18;102008.59;5049326;28;20408;-77
2022/12/30 02:05:10;;;;;;;31.85;20.10;;;;;;;5.85;55.73;102018.81;5049519;28;20820;-77
2022/12/30 02:07:43;;;;;;;35.75;21.75;;;;;;;5.98;55.76;102010.91;5049220;28;20849;-77
2022/12/30 02:10:09;;;;;;;30.85;20.42;;;;;;;6.03;55.22;102003.53;5048279;28;20389;-77
2022/12/30 02:12:35;;;;;;;31.70;19.65;;;;;;;6.07;55.61;101999.75;5049023;28;20865;-77
2022/12/30 02:15:03;;;;;;;32.15;21.10;;;;;;;6.08;55.43;101995.31;5048965;28;20413;-77
2022/12/30 02:18:03;;;;;;;27.60;19.60;;;;;;;6.08;55.28;102005.84;5049254;28;20389;-77
2022/12/30 02:20:31;;;;;;;35.50;21.40;;;;;;;5.95;55.93;102000.56;5048742;28;20376;-76
2022/12/30 02:23:09;;;;;;;35.97;23.25;;;;;;;5.96;56.03;102004.06;5048193;28;20380;-76
2022/12/30 02:25:50;;;;;;;39.22;23.95;;;;;;;5.98;55.81;102005.66;5048826;28;20409;-76
2022/12/30 02:28:37;;;;;;;38.88;24.50;;;;;;;5.95;55.76;102013.72;5048852;28;20389;-77
2022/12/30 02:31:31;;;;;;;41.25;26.23;;;;;;;5.96;55.69;102004.06;5048093;28;20396;-77
2022/12/30 02:34:08;;;;;;;43.30;27.88;;;;;;;5.98;55.31;102007.44;5047195;28;21072;-76
2022/12/30 02:36:47;;;;;;;45.50;27.83;;;;;;;5.90;55.82;102010.56;5048595;28;20395;-76
2022/12/30 02:39:36;;;;;;;42.97;28.13;;;;;;;5.71;56.19;102008.41;5048014;28;20389;-76
2022/12/30 02:45:32;;;;;;;43.63;27.73;;;;;;;5.63;56.50;102001.00;5029349;28;20472;-76
2022/12/30 02:48:07;;;;;;;47.45;28.92;;;;;;;5.77;56.50;101999.22;5048229;28;20504;-77
2022/12/30 02:53:22;;;;;;;43.22;25.83;;;;;;;5.51;56.49;101993.97;5048785;28;20924;-77
2022/12/30 02:55:49;;;;;;;41.13;26.20;;;;;;;5.48;56.67;101992.41;5048118;28;20413;-76
2022/12/30 02:58:15;;;;;;;43.65;25.15;;;;;;;5.63;56.29;101994.91;5048312;28;20881;-76
2022/12/30 03:04:30;;;;;;;29.80;18.17;;;;;;;4.79;58.19;102010.19;5049411;28;20476;-76
2022/12/30 03:07:14;;;;;;;31.35;19.88;;;;;;;4.69;58.23;102007.28;5054369;28;20732;-77
2022/12/30 03:13:00;;;;;;;32.92;19.95;;;;;;;5.20;57.10;101993.41;5052117;28;20399;-76
2022/12/30 03:15:37;;;;;;;30.02;20.73;;;;;;;5.28;56.58;101998.19;5051803;28;20498;-77
2022/12/30 03:18:03;;;;;;;34.90;23.30;;;;;;;5.35;56.12;101988.94;5050574;28;20400;-77
2022/12/30 03:20:30;;;;;;;34.65;22.27;;;;;;;5.41;55.55;101991.13;5052169;28;20458;-76
2022/12/30 03:28:28;;;;;;;35.83;21.25;;;;;;;5.26;55.86;102000.91;5038272;28;20380;-76
2022/12/30 03:31:01;;;;;;;34.40;23.23;;;;;;;5.34;55.60;101995.97;5051771;28;20830;-76
2022/12/30 03:33:28;;;;;;;42.30;35.08;;;;;;;5.43;55.39;102004.19;5051692;28;20741;-76
2022/12/30 03:36:02;;;;;;;33.75;23.60;;;;;;;5.36;55.46;102015.09;5051798;28;20903;-76
2022/12/30 03:38:33;;;;;;;34.88;23.25;;;;;;;5.07;55.77;102017.06;5051532;28;20392;-76
2022/12/30 03:41:01;;;;;;;35.08;22.13;;;;;;;5.10;56.18;102016.88;5051209;28;20408;-76
2022/12/30 03:43:27;;;;;;;41.33;21.52;;;;;;;5.04;55.98;102012.03;5051376;28;20466;-76
2022/12/30 03:45:53;;;;;;;35.13;21.02;;;;;;;4.99;56.08;102024.63;5066845;28;20381;-76
2022/12/30 03:48:19;;;;;;;35.10;22.42;;;;;;;4.88;56.54;102027.97;5068421;28;20393;-76
2022/12/30 03:50:45;;;;;;;36.07;23.03;;;;;;;4.78;56.79;102011.09;5050992;28;20453;-76
2022/12/30 03:53:10;;;;;;;34.17;21.20;;;;;;;4.91;56.57;102016.41;5049867;28;20396;-76
2022/12/30 03:55:36;;;;;;;35.57;23.30;;;;;;;5.04;56.14;102013.78;5035765;28;20414;-76
2022/12/30 03:58:01;;;;;;;42.90;31.87;;;;;;;5.12;55.52;102014.97;5048145;28;20399;-76
2022/12/30 04:00:27;;;;;;;38.60;24.10;;;;;;;5.11;55.47;102020.31;5045581;28;20386;-76
2022/12/30 04:02:52;;;;;;;35.17;22.38;;;;;;;5.09;55.92;102024.84;5040539;28;20666;-76
2022/12/30 04:05:18;;;;;;;35.33;23.17;;;;;;;5.14;55.14;102020.13;5040501;28;21089;-76
2022/12/30 04:07:43;;;;;;;39.80;26.00;;;;;;;5.17;55.44;102033.06;5037764;28;20854;-77
2022/12/30 04:10:09;;;;;;;35.17;23.10;;;;;;;5.06;55.63;102031.16;5047676;28;20395;-77
2022/12/30 04:12:34;;;;;;;37.40;25.40;;;;;;;5.06;55.87;102030.28;5050383;28;20413;-77
2022/12/30 04:15:00;;;;;;;41.38;25.35;;;;;;;5.10;55.06;102029.16;5047960;28;20401;-77
2022/12/30 04:17:26;;;;;;;44.28;23.05;;;;;;;5.08;55.50;102041.56;5043607;28;20479;-77
2022/12/30 04:19:51;;;;;;;37.10;23.27;;;;;;;5.12;55.15;102043.06;5040120;28;20405;-76
2022/12/30 04:22:17;;;;;;;51.30;27.60;;;;;;;5.09;55.43;102041.44;5040574;28;20382;-77
2022/12/30 04:24:42;;;;;;;39.37;23.00;;;;;;;4.88;56.05;102054.22;5040257;28;20373;-76
2022/12/30 04:27:08;;;;;;;32.80;19.90;;;;;;;4.33;57.61;102060.38;5040488;28;20404;-76
2022/12/30 04:29:34;;;;;;;31.67;19.15;;;;;;;4.35;57.65;102059.31;5050260;28;20466;-76
2022/12/30 04:31:59;;;;;;;27.13;17.08;;;;;;;4.27;57.45;102066.84;5050451;28;20467;-76
2022/12/30 04:34:25;;;;;;;32.03;18.83;;;;;;;4.06;57.88;102063.75;5050312;28;20531;-76
2022/12/30 04:36:50;;;;;;;32.13;19.63;;;;;;;4.21;57.79;102078.59;5050497;28;20859;-76
2022/12/30 04:39:16;;;;;;;29.77;18.47;;;;;;;3.99;58.26;102071.16;5048786;28;20687;-76
2022/12/30 04:41:41;;;;;;;27.97;17.90;;;;;;;4.14;58.06;102058.03;5048577;28;20424;-76
2022/12/30 04:44:06;;;;;;;29.27;19.80;;;;;;;4.33;57.37;102060.38;5047682;28;20392;-76
2022/12/30 04:46:32;;;;;;;27.00;18.65;;;;;;;4.50;56.86;102067.19;5049361;28;20388;-76
2022/12/30 04:48:58;;;;;;;29.85;18.27;;;;;;;4.24;57.36;102053.06;5051505;28;20538;-77
2022/12/30 04:51:23;;;;;;;32.03;18.80;;;;;;;4.27;57.67;102058.13;5051486;28;20426;-77
2022/12/30 04:53:49;;;;;;;33.10;18.60;;;;;;;4.33;57.07;102063.84;5051267;28;20383;-77
2022/12/30 04:56:15;;;;;;;32.92;19.17;;;;;;;4.31;57.28;102059.63;5053070;28;20757;-76
2022/12/30 04:58:40;;;;;;;31.70;19.67;;;;;;;4.39;57.21;102071.34;5053197;28;20408;-76
2022/12/30 05:01:06;;;;;;;37.30;22.37;;;;;;;4.61;56.43;102083.13;5043269;28;20389;-76
2022/12/30 05:03:31;;;;;;;33.77;20.37;;;;;;;4.69;56.51;102075.56;5055139;28;20384;-76
2022/12/30 05:05:57;;;;;;;40.27;23.50;;;;;;;4.70;56.53;102077.28;5062089;28;20385;-75
2022/12/30 05:08:23;;;;;;;39.33;24.55;;;;;;;4.75;56.14;102075.19;5061087;28;20381;-76
2022/12/30 05:10:49;;;;;;;36.77;22.97;;;;;;;4.89;56.39;102086.59;5059890;28;20377;-76
2022/12/30 05:13:15;;;;;;;41.75;26.40;;;;;;;4.90;55.75;102073.38;5056982;28;20396;-76
2022/12/30 05:15:41;;;;;;;40.45;25.25;;;;;;;4.85;56.13;102080.69;5053685;28;20419;-77
2022/12/30 05:18:07;;;;;;;36.93;23.67;;;;;;;4.84;56.99;102070.28;5049744;28;20487;-77
2022/12/30 05:20:32;;;;;;;36.13;24.13;;;;;;;4.91;56.67;102067.16;5049541;28;20380;-77
2022/12/30 05:22:58;;;;;;;35.00;25.23;;;;;;;4.98;56.68;102065.81;5049694;28;20415;-77
2022/12/30 05:28:07;;;;;;;36.85;25.88;;;;;;;5.05;56.31;102061.00;5050380;28;20399;-77
2022/12/30 05:30:32;;;;;;;47.97;33.53;;;;;;;5.18;56.42;102068.91;5050881;28;20385;-77
2022/12/30 05:32:58;;;;;;;48.45;31.92;;;;;;;5.15;55.94;102069.16;5050593;28;20388;-77
2022/12/30 05:35:23;;;;;;;44.10;29.08;;;;;;;5.18;56.35;102076.81;5049559;28;20487;-77
2022/12/30 05:37:49;;;;;;;41.73;26.60;;;;;;;5.24;56.31;102075.56;5050344;28;20399;-77
2022/12/30 05:40:15;;;;;;;41.30;26.53;;;;;;;5.32;55.93;102066.22;5050234;28;20473;-77
2022/12/30 05:42:40;;;;;;;37.90;24.13;;;;;;;5.23;55.96;102073.88;5050480;28;20818;-77
2022/12/30 05:45:07;;;;;;;37.90;24.30;;;;;;;5.26;56.04;102073.69;5050570;28;20387;-77
2022/12/30 05:47:32;;;;;;;42.10;26.27;;;;;;;5.26;56.14;102085.03;5050776;28;20377;-77
2022/12/30 05:49:58;;;;;;;46.50;32.43;;;;;;;5.27;56.22;102076.19;5050002;28;20482;-77
2022/12/30 05:52:23;;;;;;;51.10;32.67;;;;;;;5.35;56.09;102073.91;5050182;28;20388;-77
2022/12/30 05:54:49;;;;;;;54.50;33.38;;;;;;;5.35;55.95;102073.06;5049519;28;20743;-77
2022/12/30 05:57:14;;;;;;;57.33;36.13;;;;;;;5.37;56.22;102076.44;5050025;28;20487;-77
2022/12/30 05:59:40;;;;;;;62.17;34.93;;;;;;;5.36;56.22;102066.84;5049208;28;20388;-77
2022/12/30 06:02:06;;;;;;;58.53;36.10;;;;;;;5.32;55.98;102081.16;5050100;28;20376;-77
2022/12/30 06:04:31;;;;;;;57.83;34.72;;;;;;;5.30;56.02;102078.63;5049892;28;20381;-76
2022/12/30 06:06:56;;;;;;;52.17;32.65;;;;;;;5.32;55.83;102074.09;5050229;28;20381;-77
2022/12/30 06:09:22;;;;;;;58.70;32.60;;;;;;;5.33;55.89;102067.91;5050155;28;20376;-77
2022/12/30 06:11:47;;;;;;;56.10;36.00;;;;;;;5.39;55.52;102068.47;5047626;28;20415;-77
2022/12/30 06:14:15;;;;;;;52.40;33.27;;;;;;;5.21;55.51;102073.97;5048415;28;20439;-77
2022/12/30 06:16:41;;;;;;;52.25;32.70;;;;;;;5.12;55.59;102072.78;5048517;28;20416;-77
2022/12/30 06:19:07;;;;;;;52.27;32.63;;;;;;;5.21;55.73;102075.78;5048475;28;20419;-77
2022/12/30 06:21:33;;;;;;;53.08;32.55;;;;;;;5.27;55.60;102076.19;5049110;28;20380;-76
2022/12/30 06:23:59;;;;;;;53.00;31.33;;;;;;;5.31;55.59;102072.44;5049165;28;20377;-77
2022/12/30 06:26:24;;;;;;;54.80;33.00;;;;;;;5.31;55.39;102063.69;5049952;28;20467;-76
2022/12/30 06:28:50;;;;;;;52.22;32.45;;;;;;;5.13;55.64;102068.38;5050128;28;20384;-77
2022/12/30 06:31:15;;;;;;;53.88;32.60;;;;;;;5.00;55.62;102070.97;5049710;28;20392;-77
2022/12/30 06:33:41;;;;;;;59.47;34.83;;;;;;;5.10;55.87;102076.47;5049820;28;20758;-78
2022/12/30 06:36:07;;;;;;;59.10;35.33;;;;;;;5.09;56.16;102070.38;5049296;28;20902;-77
2022/12/30 06:38:32;;;;;;;52.43;35.77;;;;;;;5.04;56.39;102076.88;5050405;28;20529;-76
2022/12/30 06:40:58;;;;;;;52.80;36.03;;;;;;;5.13;55.86;102076.25;5052336;28;20372;-75
2022/12/30 06:43:23;;;;;;;58.90;37.67;;;;;;;5.11;56.09;102079.03;5052378;28;20442;-77
2022/12/30 06:45:49;;;;;;;59.53;34.88;;;;;;;5.07;55.93;102076.69;5047776;28;20409;-77
2022/12/30 06:48:14;;;;;;;58.35;37.47;;;;;;;5.09;56.28;102077.41;5054140;28;20408;-76
2022/12/30 06:50:39;;;;;;;61.50;39.30;;;;;;;5.00;56.29;102081.47;5054076;28;20448;-76
2022/12/30 06:53:06;;;;;;;67.43;41.13;;;;;;;4.81;56.89;102078.34;5050726;28;20385;-76
2022/12/30 06:55:31;;;;;;;72.97;47.38;;;;;;;4.77;57.42;102078.56;5044985;28;20530;-77
2022/12/30 06:57:57;;;;;;;72.22;44.95;;;;;;;4.76;56.99;102078.66;5046452;28;20476;-76
2022/12/30 07:00:22;;;;;;;72.53;42.97;;;;;;;4.86;57.37;102084.16;5046582;28;20391;-76
2022/12/30 07:02:48;;;;;;;74.80;43.33;;;;;;;4.97;56.73;102073.81;5051181;28;20430;-78
2022/12/30 07:05:14;;;;;;;74.87;46.33;;;;;;;4.84;56.99;102084.25;5055004;28;20389;-76
2022/12/30 07:07:39;;;;;;;99.07;54.07;;;;;;;4.67;57.47;102095.00;5057044;28;20495;-75
2022/12/30 07:10:05;;;;;;;72.57;45.10;;;;;;;4.54;57.91;102097.56;5053990;28;20470;-74
2022/12/30 07:12:31;;;;;;;76.43;46.95;;;;;;;4.52;57.59;102094.19;5045609;28;20391;-75
2022/12/30 07:14:56;;;;;;;74.33;47.50;;;;;;;4.54;57.79;102098.41;5052424;28;20438;-75
2022/12/30 07:17:22;;;;;;;82.32;49.35;;;;;;;4.58;57.45;102092.03;5047991;28;20555;-75
2022/12/30 07:19:47;;;;;;;72.80;46.28;;;;;;;4.62;57.11;102095.28;5050474;28;20457;-76
2022/12/30 07:22:13;;;;;;;71.37;45.43;;;;;;;4.54;57.54;102092.31;5053123;28;20389;-75
2022/12/30 07:24:39;;;;;;;67.72;44.75;;;;;;;4.53;57.51;102086.22;5053238;28;20514;-76
2022/12/30 07:27:04;;;;;;;65.30;43.47;;;;;;;4.76;57.40;102091.81;5052900;28;20388;-76
2022/12/30 07:29:30;;;;;;;64.43;42.00;;;;;;;4.83;57.27;102082.59;5053197;28;20501;-76
2022/12/30 07:31:57;;;;;;;66.50;42.43;;;;;;;4.91;57.07;102090.78;5052813;28;20388;-76
2022/12/30 07:34:22;;;;;;;64.13;39.97;;;;;;;4.95;57.05;102081.78;5052900;28;20417;-77
2022/12/30 07:36:47;;;;;;;58.50;38.37;;;;;;;5.07;57.01;102090.66;5053034;28;20381;-75
2022/12/30 07:39:13;;;;;;;66.28;39.58;;;;;;;5.20;56.95;102087.22;5050191;28;20398;-76
2022/12/30 07:41:38;;;;;;;63.43;41.37;;;;;;;5.27;56.83;102091.97;5046324;28;20472;-75
2022/12/30 07:44:04;;;;;;;65.90;43.30;;;;;;;5.30;57.00;102094.41;5051803;28;20381;-76
2022/12/30 07:46:29;;;;;;;64.40;42.20;;;;;;;5.27;56.78;102094.59;5052420;28;20380;-77
2022/12/30 07:48:55;;;;;;;71.00;45.20;;;;;;;5.34;57.29;102101.13;5052440;28;20737;-77
2022/12/30 07:51:20;;;;;;;93.67;51.50;;;;;;;5.32;57.49;102096.94;5053029;28;20745;-77
2022/12/30 07:53:46;;;;;;;79.97;49.87;;;;;;;5.50;56.86;102102.75;5042286;28;20413;-77
2022/12/30 07:56:13;;;;;;;76.73;48.37;;;;;;;5.58;57.09;102116.22;5052560;28;20443;-76
2022/12/30 07:58:39;;;;;;;76.80;48.83;;;;;;;5.59;57.05;102112.66;5051484;28;20729;-75
2022/12/30 08:01:10;;;;;;;83.15;49.47;;;;;;;5.49;57.32;102106.31;5048841;28;20845;-77
2022/12/30 08:03:36;;;;;;;77.78;49.28;;;;;;;5.59;57.68;102114.47;5050820;28;20381;-76
2022/12/30 08:06:16;;;;;;;76.95;52.20;;;;;;;5.72;57.32;102116.13;5045490;28;20699;-75
2022/12/30 08:08:42;;;;;;;73.10;47.85;;;;;;;5.72;57.45;102100.34;5051551;28;20416;-77
2022/12/30 08:11:09;;;;;;;70.13;48.05;;;;;;;5.75;57.51;102112.47;5052327;28;20408;-77
2022/12/30 08:13:37;;;;;;;81.90;52.88;;;;;;;5.88;57.67;102112.47;5051363;28;20911;-79
2022/12/30 08:16:06;;;;;;;85.78;53.20;;;;;;;5.95;57.40;102108.47;5049665;28;20415;-76
2022/12/30 08:18:32;;;;;;;78.80;52.08;;;;;;;6.05;56.98;102116.59;5050907;28;20880;-75
2022/12/30 08:21:02;;;;;;;84.30;54.73;;;;;;;5.98;56.74;102115.34;5050211;28;20419;-77
2022/12/30 08:23:29;;;;;;;77.00;52.33;;;;;;;5.98;57.26;102110.06;5051570;28;20387;-76
2022/12/30 08:25:55;;;;;;;89.05;55.55;;;;;;;6.11;56.93;102124.09;5052021;28;20385;-77
2022/12/30 08:28:20;;;;;;;67.13;46.70;;;;;;;6.16;56.77;102116.72;5053190;28;20808;-75
2022/12/30 08:30:46;;;;;;;54.60;37.20;;;;;;;6.08;57.01;102117.22;5052761;28;20484;-77
2022/12/30 08:33:11;;;;;;;54.77;36.43;;;;;;;6.03;57.20;102103.56;5055706;28;20391;-76
2022/12/30 08:35:37;;;;;;;51.43;35.40;;;;;;;6.15;57.17;102112.41;5054429;28;20419;-77
2022/12/30 08:38:02;;;;;;;56.47;39.30;;;;;;;6.27;57.25;102103.66;5052716;28;20399;-76
2022/12/30 08:40:30;;;;;;;47.47;34.33;;;;;;;6.36;56.98;102119.75;5052066;28;20727;-77
2022/12/30 08:42:56;;;;;;;54.53;34.72;;;;;;;6.43;56.75;102127.13;5051266;28;20400;-77
2022/12/30 08:45:21;;;;;;;48.63;30.92;;;;;;;6.57;56.88;102122.66;5052147;28;20372;-77
2022/12/30 08:47:47;;;;;;;42.60;28.90;;;;;;;6.69;56.88;102130.53;5051908;28;20809;-79
2022/12/30 08:50:12;;;;;;;45.80;30.97;;;;;;;6.85;56.48;102129.44;5051843;28;20399;-77
2022/12/30 08:52:37;;;;;;;45.33;30.80;;;;;;;6.95;56.76;102125.19;5051312;28;20780;-77
2022/12/30 08:55:03;;;;;;;47.47;31.00;;;;;;;7.00;56.44;102112.50;5051272;28;20851;-77
2022/12/30 08:57:31;;;;;;;43.33;29.45;;;;;;;7.05;56.46;102120.06;5050830;28;20417;-77
2022/12/30 08:59:56;;;;;;;42.23;28.60;;;;;;;6.96;56.54;102118.94;5051762;28;20385;-77
2022/12/30 09:02:22;;;;;;;42.63;28.33;;;;;;;7.05;56.60;102120.91;5050303;28;20487;-76
2022/12/30 09:04:47;;;;;;;45.25;28.63;;;;;;;7.13;56.77;102116.88;5051350;28;20393;-77
2022/12/30 09:07:13;;;;;;;40.43;27.87;;;;;;;7.16;56.84;102108.75;5051823;28;20446;-76
2022/12/30 09:09:38;;;;;;;45.00;29.07;;;;;;;7.29;56.67;102109.50;5052230;28;20396;-77
2022/12/30 09:12:04;;;;;;;41.65;28.88;;;;;;;7.41;56.58;102113.03;5052028;28;20398;-76
2022/12/30 09:14:30;;;;;;;42.28;29.33;;;;;;;7.50;56.50;102112.34;5051213;28;20907;-76
2022/12/30 09:16:55;;;;;;;40.88;27.08;;;;;;;7.55;56.94;102104.09;5066661;28;20397;-76
2022/12/30 09:19:20;;;;;;;38.73;25.60;;;;;;;7.60;57.27;102100.16;5050131;28;20388;-79
2022/12/30 09:21:46;;;;;;;44.97;28.40;;;;;;;7.82;57.92;102090.59;5047974;28;20846;-78
2022/12/30 09:24:12;;;;;;;42.50;26.27;;;;;;;7.94;58.43;102097.56;5050195;28;20875;-76
2022/12/30 09:26:37;;;;;;;37.70;25.23;;;;;;;8.29;59.01;102099.25;5050618;28;20484;-75
2022/12/30 09:29:03;;;;;;;36.83;25.42;;;;;;;8.21;56.47;102083.13;5050504;28;20792;-75
2022/12/30 09:31:29;;;;;;;40.87;26.03;;;;;;;8.13;56.73;102081.09;5054620;28;20413;-83
2022/12/30 09:33:55;;;;;;;37.50;26.33;;;;;;;8.20;56.08;102084.94;5072571;28;20400;-82
2022/12/30 09:36:21;;;;;;;38.58;25.75;;;;;;;8.23;56.04;102068.88;5058084;28;20408;-79
2022/12/30 09:38:46;;;;;;;40.92;27.10;;;;;;;8.30;56.04;102068.38;5054297;28;20472;-79
2022/12/30 09:41:18;;;;;;;39.80;27.23;;;;;;;8.38;56.00;102069.44;5053558;28;20452;-79
2022/12/30 09:44:07;;;;;;;36.25;26.02;;;;;;;8.39;55.77;102060.56;5049713;28;20399;-74
2022/12/30 09:46:38;;;;;;;48.05;29.35;;;;;;;8.51;55.51;102057.94;5048179;28;20399;-74
2022/12/30 09:49:19;;;;;;;41.65;26.33;;;;;;;8.60;55.16;102060.66;5048924;28;20446;-74
2022/12/30 09:51:51;;;;;;;42.42;29.88;;;;;;;8.66;54.94;102055.84;5046965;28;20385;-74
2022/12/30 09:54:21;;;;;;;43.13;29.93;;;;;;;8.72;55.30;102053.56;5049448;28;20939;-74
2022/12/30 09:56:50;;;;;;;38.40;26.77;;;;;;;8.88;55.01;102060.25;5045338;28;20407;-74
2022/12/30 09:59:36;;;;;;;45.47;28.02;;;;;;;8.77;54.79;102050.56;5046523;28;20389;-74
2022/12/30 10:02:22;;;;;;;40.58;27.92;;;;;;;8.89;55.10;102044.22;5047464;28;20403;-74
2022/12/30 10:04:48;;;;;;;47.28;30.17;;;;;;;8.97;54.72;102049.75;5045072;28;20447;-73
2022/12/30 10:07:16;;;;;;;49.67;31.50;;;;;;;9.03;54.33;102058.16;5049702;28;20833;-73
2022/12/30 10:09:48;;;;;;;41.45;27.67;;;;;;;9.04;54.73;102052.72;5049524;28;20385;-75
2022/12/30 10:12:26;;;;;;;39.75;28.58;;;;;;;9.09;54.63;102058.47;5051160;28;20381;-74
2022/12/30 10:14:57;;;;;;;55.53;32.47;;;;;;;9.13;54.57;102043.19;5047621;28;20470;-73
2022/12/30 10:17:35;;;;;;;43.38;29.65;;;;;;;9.21;54.23;102030.16;5054566;28;20860;-74
2022/12/30 10:20:15;;;;;;;43.58;28.50;;;;;;;9.29;54.44;102045.38;5054475;28;20412;-74
2022/12/30 10:23:01;;;;;;;37.90;26.25;;;;;;;9.29;53.79;102038.28;5054176;28;20392;-74
2022/12/30 10:25:39;;;;;;;38.72;28.00;;;;;;;9.33;54.04;102046.81;5052291;28;20412;-75
2022/12/30 10:28:10;;;;;;;36.88;27.05;;;;;;;9.37;53.81;102042.94;5053065;28;20396;-73
2022/12/30 10:30:46;;;;;;;37.57;27.50;;;;;;;9.49;54.25;102031.31;5052135;28;20380;-74
2022/12/30 10:33:20;;;;;;;44.08;31.90;;;;;;;9.54;53.79;102026.47;5051918;28;20384;-74
2022/12/30 10:35:50;;;;;;;45.45;32.67;;;;;;;9.55;53.54;102022.84;5053069;28;20455;-74
2022/12/30 10:38:19;;;;;;;47.70;32.70;;;;;;;9.62;53.68;102025.81;5052177;28;20410;-74
2022/12/30 10:40:48;;;;;;;49.25;34.33;;;;;;;9.79;53.27;102024.34;5052384;28;20465;-74
2022/12/30 10:43:29;;;;;;;41.47;29.23;;;;;;;9.83;52.96;102030.22;5053216;28;20711;-75
2022/12/30 10:46:26;;;;;;;46.20;31.15;;;;;;;9.91;52.73;102019.81;5050603;28;20400;-76
2022/12/30 10:48:54;;;;;;;41.47;30.23;;;;;;;10.06;52.81;102020.28;5054320;28;20814;-75
2022/12/30 10:51:20;;;;;;;46.25;32.58;;;;;;;10.09;52.59;102020.00;5052303;28;20729;-75
2022/12/30 10:53:50;;;;;;;44.33;32.17;;;;;;;10.17;52.55;102020.16;5053105;28;20950;-75
2022/12/30 10:56:25;;;;;;;40.33;29.70;;;;;;;10.28;52.82;102011.25;5045760;28;20416;-75
2022/12/30 10:58:53;;;;;;;42.72;29.38;;;;;;;10.40;52.19;102010.22;5052160;28;20891;-74
2022/12/30 11:01:39;;;;;;;41.03;29.65;;;;;;;10.45;51.83;101992.09;5052498;28;20390;-76
2022/12/30 11:04:05;;;;;;;40.45;29.27;;;;;;;10.52;51.43;102000.34;5050746;28;20391;-74
2022/12/30 11:06:34;;;;;;;39.77;28.70;;;;;;;10.58;51.47;102007.72;5052587;28;20377;-74
2022/12/30 11:09:11;;;;;;;38.80;28.80;;;;;;;10.45;51.27;102005.34;5055016;28;20369;-74
2022/12/30 11:14:42;;;;;;;39.28;28.52;;;;;;;10.68;51.62;101989.19;5056207;28;20932;-75
2022/12/30 11:17:17;;;;;;;40.42;28.52;;;;;;;10.79;50.94;101991.69;5052428;28;20438;-75
2022/12/30 11:19:43;;;;;;;42.05;28.38;;;;;;;10.79;50.86;101993.50;5076753;28;20790;-75
2022/12/30 11:22:10;;;;;;;38.40;26.98;;;;;;;10.67;51.28;101990.97;5042947;28;20394;-74
2022/12/30 11:24:37;;;;;;;35.88;25.92;;;;;;;10.65;51.55;101984.16;5031208;28;20394;-74
2022/12/30 11:27:03;;;;;;;36.03;25.98;;;;;;;10.67;51.18;101979.53;5032467;28;20377;-73
2022/12/30 11:29:33;;;;;;;81.20;59.92;;;;;;;10.78;51.45;101983.88;5032364;28;20403;-75
2022/12/30 11:32:08;;;;;;;42.92;30.42;;;;;;;10.81;51.02;101987.06;5032887;28;20412;-75
2022/12/30 11:34:36;;;;;;;34.50;25.52;;;;;;;10.87;51.15;101991.81;5040903;28;20405;-75
2022/12/30 11:37:40;;;;;;;37.90;26.05;;;;;;;10.94;51.26;101985.97;5043041;28;20387;-74
2022/12/30 11:40:37;;;;;;;39.15;26.48;;;;;;;11.01;50.89;101976.44;5007865;28;20396;-74
2022/12/30 11:43:15;;;;;;;39.38;29.83;;;;;;;11.08;50.93;101974.91;4982137;28;20392;-74
2022/12/30 11:45:57;;;;;;;38.85;26.67;;;;;;;11.15;50.79;101983.16;5031050;28;20395;-74
2022/12/30 11:48:34;;;;;;;44.57;39.77;;;;;;;11.22;50.82;101976.28;5040978;28;20392;-74
2022/12/30 11:51:26;;;;;;;36.85;26.02;;;;;;;11.23;50.56;101980.59;5044049;28;20392;-75
2022/12/30 11:54:17;;;;;;;41.40;29.00;;;;;;;11.32;50.47;101973.59;5040743;28;20755;-74
2022/12/30 11:57:18;;;;;;;42.20;29.00;;;;;;;11.40;50.46;101977.22;5034652;28;20408;-74
2022/12/30 11:59:47;;;;;;;38.47;28.10;;;;;;;11.43;50.30;101979.59;5038704;28;20393;-75
2022/12/30 12:02:35;;;;;;;36.15;27.77;;;;;;;11.40;50.33;101976.38;5041855;28;20406;-74
2022/12/30 12:05:00;;;;;;;37.40;27.38;;;;;;;11.46;50.45;101970.47;5037437;28;20400;-75
2022/12/30 12:07:32;;;;;;;39.38;28.02;;;;;;;11.55;50.21;101968.78;5035920;28;20422;-74
2022/12/30 12:10:13;;;;;;;71.32;54.00;;;;;;;11.56;50.26;101970.44;5040364;28;20408;-73
2022/12/30 12:12:49;;;;;;;49.03;42.75;;;;;;;11.55;50.11;101971.44;5045040;28;20387;-73
2022/12/30 12:15:25;;;;;;;42.60;31.40;;;;;;;11.53;50.10;101960.13;5048987;28;20443;-75
2022/12/30 12:18:02;;;;;;;42.70;34.60;;;;;;;11.54;50.25;101951.16;5051581;28;20880;-75
2022/12/30 12:20:46;;;;;;;47.55;36.35;;;;;;;11.57;50.33;101957.00;5049740;28;20471;-74
2022/12/30 12:23:26;;;;;;;39.25;27.83;;;;;;;11.62;50.19;101951.28;5051279;28;20385;-74